< < Back
Terminal Aerodrome Forecast


Current Version              Previous Versions:   1  2  3  4  5  6  7  8  9  

Terminal Aerodrome Forecast

289
FTUS42 KTAE 010500
TAFTLH
TAF
KTLH 010532Z 0106/0206 11007KT P6SM BKN250
     FM011700 16012G18KT P6SM BKN050
     FM020000 15011KT P6SM -RA OVC015=

Latest METAR

076
SAUS80 KWBC 010458
MTRTLH
METAR KTLH 010453Z AUTO 11007KT 10SM CLR 09/02 A3026 RMK AO2 SLP247
T00890022 401831017 $


USA.gov is the U.S. government's official web portal to all federal, state and local government web resources and services.